Time;durP1;ratioP1;P1;durP2;ratioP2;P2;SDS_P1;SDS_P2;PMS_P1;PMS_P2;Temp;Humidity;BMP_temperature;BMP_pressure;BME280_temperature;BME280_humidity;BME280_pressure;Samples;Min_cycle;Max_cycle;Signal;HPM_P1;HPM_P2
2021/06/06 00:01:35;;;;;;;6.30;3.55;;;;;;;;;;5098507;28;20027;-72
2021/06/06 00:04:01;;;;;;;6.35;3.97;;;;;;;;;;5090842;28;20604;-71
2021/06/06 00:06:29;;;;;;;5.70;3.72;;;;;;;;;;5090203;28;20461;-71
2021/06/06 00:08:56;;;;;;;6.80;3.60;;;;;;;;;;5096243;28;20116;-72
2021/06/06 00:11:24;;;;;;;7.53;3.50;;;;;;;;;;5094637;28;20023;-71
2021/06/06 00:13:52;;;;;;;6.00;4.28;;;;;;;;;;5106365;28;20127;-72
2021/06/06 00:16:20;;;;;;;6.25;3.90;;;;;;;;;;5106873;28;20103;-71
2021/06/06 00:18:47;;;;;;;7.93;3.78;;;;;;;;;;5091738;28;20028;-71
2021/06/06 00:21:14;;;;;;;5.70;3.70;;;;;;;;;;5104010;28;20027;-71
2021/06/06 00:23:40;;;;;;;5.72;3.47;;;;;;;;;;5100821;28;20027;-71
2021/06/06 00:26:06;;;;;;;6.97;3.67;;;;;;;;;;5094465;28;20035;-71
2021/06/06 00:28:33;;;;;;;5.72;3.90;;;;;;;;;;5091451;28;20479;-71
2021/06/06 00:31:00;;;;;;;6.95;3.88;;;;;;;;;;5092986;28;20031;-70
2021/06/06 00:33:27;;;;;;;7.78;5.22;;;;;;;;;;5096775;28;20032;-71
2021/06/06 00:35:53;;;;;;;7.63;4.25;;;;;;;;;;5106811;28;20035;-71
2021/06/06 00:38:19;;;;;;;8.32;3.90;;;;;;;;;;5073786;28;20118;-70
2021/06/06 00:40:45;;;;;;;7.82;4.05;;;;;;;;;;5070575;28;20364;-71
2021/06/06 00:43:11;;;;;;;7.05;3.90;;;;;;;;;;5108447;28;20487;-70
2021/06/06 00:45:38;;;;;;;7.10;4.30;;;;;;;;;;5106873;28;20024;-71
2021/06/06 00:48:05;;;;;;;6.95;4.22;;;;;;;;;;5074280;28;20390;-70
2021/06/06 00:50:34;;;;;;;8.13;4.40;;;;;;;;;;5101502;28;20016;-70
2021/06/06 00:53:02;;;;;;;9.05;4.68;;;;;;;;;;5104971;28;20035;-71
2021/06/06 00:55:28;;;;;;;8.90;5.18;;;;;;;;;;5091615;28;20080;-69
2021/06/06 00:57:55;;;;;;;6.72;4.32;;;;;;;;;;5095657;28;20023;-71
2021/06/06 01:00:24;;;;;;;7.43;4.32;;;;;;;;;;5104412;28;20487;-70
2021/06/06 01:02:50;;;;;;;11.25;4.40;;;;;;;;;;5087280;28;20511;-71
2021/06/06 01:05:25;;;;;;;7.30;4.47;;;;;;;;;;5090026;28;20031;-71
2021/06/06 01:07:52;;;;;;;7.88;4.53;;;;;;;;;;5101471;28;20028;-71
2021/06/06 01:10:18;;;;;;;5.85;4.93;;;;;;;;;;5089549;28;20024;-70
2021/06/06 01:12:48;;;;;;;12.23;5.55;;;;;;;;;;5101174;28;20040;-71
2021/06/06 01:15:19;;;;;;;8.80;4.35;;;;;;;;;;5107620;28;20043;-70
2021/06/06 01:18:01;;;;;;;12.43;6.25;;;;;;;;;;5107423;28;20036;-70
2021/06/06 01:20:30;;;;;;;9.57;5.28;;;;;;;;;;5096661;28;20486;-71
2021/06/06 01:22:59;;;;;;;7.32;4.85;;;;;;;;;;5092728;28;20118;-71
2021/06/06 01:25:42;;;;;;;12.43;5.38;;;;;;;;;;5107087;28;20536;-71
2021/06/06 01:28:14;;;;;;;10.27;4.50;;;;;;;;;;5097145;28;20024;-71
2021/06/06 01:30:45;;;;;;;8.43;5.07;;;;;;;;;;5112664;28;20130;-71
2021/06/06 01:33:22;;;;;;;8.75;4.32;;;;;;;;;;5110200;28;20027;-70
2021/06/06 01:35:51;;;;;;;9.00;4.78;;;;;;;;;;5099142;28;20050;-70
2021/06/06 01:38:19;;;;;;;10.07;5.13;;;;;;;;;;5106550;28;20027;-71
2021/06/06 01:40:47;;;;;;;10.63;5.53;;;;;;;;;;5092176;28;20099;-71
2021/06/06 01:43:19;;;;;;;12.18;5.15;;;;;;;;;;5089189;28;20122;-71
2021/06/06 01:45:48;;;;;;;8.05;4.75;;;;;;;;;;5109455;28;20039;-71
2021/06/06 01:48:15;;;;;;;7.88;4.40;;;;;;;;;;5095434;28;20028;-70
2021/06/06 01:50:43;;;;;;;8.57;5.57;;;;;;;;;;5112792;28;20128;-72
2021/06/06 01:53:10;;;;;;;9.18;4.55;;;;;;;;;;5110951;28;20031;-70
2021/06/06 01:55:40;;;;;;;7.57;4.72;;;;;;;;;;5105485;28;20390;-71
2021/06/06 01:58:07;;;;;;;8.40;4.43;;;;;;;;;;5107561;28;20039;-71
2021/06/06 02:00:38;;;;;;;6.70;4.25;;;;;;;;;;5100195;28;20043;-71
2021/06/06 02:03:04;;;;;;;7.30;4.22;;;;;;;;;;5094407;28;20028;-70
2021/06/06 02:05:31;;;;;;;7.38;4.30;;;;;;;;;;5095483;28;20035;-71
2021/06/06 02:07:58;;;;;;;6.25;5.03;;;;;;;;;;5091524;28;20024;-70
2021/06/06 02:10:28;;;;;;;9.60;4.07;;;;;;;;;;5093541;28;20486;-71
2021/06/06 02:13:01;;;;;;;5.95;4.40;;;;;;;;;;5105539;28;20710;-70
2021/06/06 02:15:29;;;;;;;8.15;4.75;;;;;;;;;;5099880;28;20097;-70
2021/06/06 02:17:57;;;;;;;10.60;4.43;;;;;;;;;;5108735;28;20122;-70
2021/06/06 02:20:24;;;;;;;7.75;4.00;;;;;;;;;;5099713;28;20030;-71
2021/06/06 02:22:50;;;;;;;8.02;4.45;;;;;;;;;;5091554;28;20055;-70
2021/06/06 02:25:17;;;;;;;8.95;4.30;;;;;;;;;;5099637;28;20063;-70
2021/06/06 02:28:01;;;;;;;9.68;4.40;;;;;;;;;;5096948;28;20030;-70
2021/06/06 02:30:33;;;;;;;6.18;4.63;;;;;;;;;;5111084;28;20024;-70
2021/06/06 02:33:08;;;;;;;9.50;4.43;;;;;;;;;;5107139;28;20032;-70
2021/06/06 02:35:37;;;;;;;7.50;4.43;;;;;;;;;;5105003;28;20055;-70
2021/06/06 02:38:12;;;;;;;6.55;4.10;;;;;;;;;;5106250;28;20046;-71
2021/06/06 02:40:38;;;;;;;6.38;4.38;;;;;;;;;;5099664;28;20031;-70
2021/06/06 02:43:07;;;;;;;7.50;4.70;;;;;;;;;;5114253;27;20554;-70
2021/06/06 02:45:34;;;;;;;6.60;4.40;;;;;;;;;;5100357;28;20032;-70
2021/06/06 02:48:09;;;;;;;9.88;4.88;;;;;;;;;;5096057;28;20102;-70
2021/06/06 02:50:37;;;;;;;10.73;4.85;;;;;;;;;;5099525;28;20034;-70
2021/06/06 02:53:07;;;;;;;7.10;4.90;;;;;;;;;;5092012;28;20081;-69
2021/06/06 02:55:38;;;;;;;7.90;4.40;;;;;;;;;;5096507;28;20031;-70
2021/06/06 02:58:10;;;;;;;8.23;4.20;;;;;;;;;;5106043;28;20039;-71
2021/06/06 03:00:40;;;;;;;12.02;5.65;;;;;;;;;;5110393;28;20059;-70
2021/06/06 03:03:10;;;;;;;8.45;4.60;;;;;;;;;;5094962;28;20043;-69
2021/06/06 03:05:36;;;;;;;7.65;4.32;;;;;;;;;;5094001;28;20028;-70
2021/06/06 03:08:04;;;;;;;8.15;3.90;;;;;;;;;;5098569;28;20107;-70
2021/06/06 03:10:32;;;;;;;8.35;4.63;;;;;;;;;;5090644;28;20464;-70
2021/06/06 03:13:01;;;;;;;8.40;4.25;;;;;;;;;;5072505;28;20036;-70
2021/06/06 03:15:29;;;;;;;10.60;4.85;;;;;;;;;;5093566;28;20126;-70
2021/06/06 03:17:55;;;;;;;8.10;4.40;;;;;;;;;;5108797;28;20081;-70
2021/06/06 03:20:30;;;;;;;10.13;4.40;;;;;;;;;;5102859;28;20028;-69
2021/06/06 03:22:59;;;;;;;8.25;5.38;;;;;;;;;;5110680;28;20110;-70
2021/06/06 03:25:31;;;;;;;12.40;5.10;;;;;;;;;;5110224;28;20035;-70
2021/06/06 03:27:58;;;;;;;7.45;4.45;;;;;;;;;;5106525;28;20051;-70
2021/06/06 03:30:30;;;;;;;6.22;3.80;;;;;;;;;;5110047;28;20031;-70
2021/06/06 03:32:57;;;;;;;9.48;4.88;;;;;;;;;;5099956;28;20602;-71
2021/06/06 03:35:23;;;;;;;7.43;4.45;;;;;;;;;;5072101;28;20032;-72
2021/06/06 03:37:49;;;;;;;8.45;4.75;;;;;;;;;;5090558;28;20533;-71
2021/06/06 03:40:16;;;;;;;13.45;5.78;;;;;;;;;;5106664;28;20027;-71
2021/06/06 03:42:42;;;;;;;8.90;5.32;;;;;;;;;;5094673;28;20028;-70
2021/06/06 03:45:10;;;;;;;7.85;4.32;;;;;;;;;;5096857;28;20019;-71
2021/06/06 03:47:36;;;;;;;6.47;3.85;;;;;;;;;;5093516;28;20035;-71
2021/06/06 03:50:03;;;;;;;9.23;4.00;;;;;;;;;;5101413;28;20035;-70
2021/06/06 03:52:34;;;;;;;8.27;4.07;;;;;;;;;;5093648;28;20032;-71
2021/06/06 03:55:01;;;;;;;7.15;4.20;;;;;;;;;;5105460;28;20020;-71
2021/06/06 03:57:27;;;;;;;6.15;3.88;;;;;;;;;;5092638;28;20147;-72
2021/06/06 03:59:53;;;;;;;6.28;3.83;;;;;;;;;;5099541;28;20043;-71
2021/06/06 04:02:20;;;;;;;11.98;4.72;;;;;;;;;;5090727;28;20036;-71
2021/06/06 04:04:46;;;;;;;9.77;4.72;;;;;;;;;;5104288;28;20080;-71
2021/06/06 04:07:12;;;;;;;5.13;4.05;;;;;;;;;;5095077;28;20024;-72
2021/06/06 04:09:38;;;;;;;11.82;4.45;;;;;;;;;;5090501;28;20231;-71
2021/06/06 04:12:04;;;;;;;9.32;4.90;;;;;;;;;;5071811;28;20039;-72
2021/06/06 04:14:31;;;;;;;6.85;4.35;;;;;;;;;;5092719;28;20082;-71
2021/06/06 04:16:57;;;;;;;10.25;3.75;;;;;;;;;;5093583;28;20036;-70
2021/06/06 04:19:23;;;;;;;7.72;4.28;;;;;;;;;;5104633;28;20027;-71
2021/06/06 04:21:49;;;;;;;12.25;4.40;;;;;;;;;;5100622;28;20119;-69
2021/06/06 04:24:15;;;;;;;11.30;5.50;;;;;;;;;;5089542;28;20130;-71
2021/06/06 04:26:42;;;;;;;15.73;4.80;;;;;;;;;;5100642;28;20498;-71
2021/06/06 04:29:08;;;;;;;11.95;4.50;;;;;;;;;;5089760;28;20600;-72
2021/06/06 04:31:35;;;;;;;9.25;4.03;;;;;;;;;;5079056;28;20402;-72
2021/06/06 04:34:01;;;;;;;10.00;4.32;;;;;;;;;;5103759;28;20115;-71
2021/06/06 04:36:27;;;;;;;8.45;5.20;;;;;;;;;;5092211;28;20040;-70
2021/06/06 04:38:54;;;;;;;8.35;3.88;;;;;;;;;;5092742;28;20382;-70
2021/06/06 04:41:20;;;;;;;5.97;4.60;;;;;;;;;;5088334;28;20039;-70
2021/06/06 04:43:46;;;;;;;7.63;4.47;;;;;;;;;;5098958;28;20568;-71
2021/06/06 04:46:14;;;;;;;6.53;3.90;;;;;;;;;;5099000;28;20478;-69
2021/06/06 04:48:45;;;;;;;8.32;4.18;;;;;;;;;;5094781;28;20497;-70
2021/06/06 04:51:13;;;;;;;12.02;4.63;;;;;;;;;;5074849;28;20639;-70
2021/06/06 04:53:39;;;;;;;9.88;4.03;;;;;;;;;;5097843;28;20035;-71
2021/06/06 04:56:05;;;;;;;9.68;4.82;;;;;;;;;;5095599;28;20483;-71
2021/06/06 04:58:32;;;;;;;9.32;4.85;;;;;;;;;;5082427;28;20027;-70
2021/06/06 05:00:59;;;;;;;9.77;4.13;;;;;;;;;;5101897;28;20044;-70
2021/06/06 05:03:26;;;;;;;7.57;4.20;;;;;;;;;;5096961;28;20486;-71
2021/06/06 05:05:52;;;;;;;13.50;4.93;;;;;;;;;;5090045;28;20036;-72
2021/06/06 05:08:20;;;;;;;9.77;5.05;;;;;;;;;;5076189;28;20526;-70
2021/06/06 05:10:47;;;;;;;7.32;4.22;;;;;;;;;;5088452;28;20024;-70
2021/06/06 05:13:13;;;;;;;8.52;4.68;;;;;;;;;;5088967;28;20028;-71
2021/06/06 05:15:40;;;;;;;12.52;4.78;;;;;;;;;;5102794;28;20062;-72
2021/06/06 05:18:07;;;;;;;10.38;5.65;;;;;;;;;;5100915;28;20391;-71
2021/06/06 05:20:44;;;;;;;7.13;4.25;;;;;;;;;;5073138;28;20518;-72
2021/06/06 05:23:11;;;;;;;11.93;4.80;;;;;;;;;;5102442;28;20842;-70
2021/06/06 05:25:38;;;;;;;10.23;4.80;;;;;;;;;;5107974;28;20062;-71
2021/06/06 05:28:05;;;;;;;8.48;4.85;;;;;;;;;;5095375;28;20028;-71
2021/06/06 05:30:32;;;;;;;9.20;4.85;;;;;;;;;;5101114;28;20024;-71
2021/06/06 05:32:58;;;;;;;8.50;4.70;;;;;;;;;;5093313;28;20036;-71
2021/06/06 05:35:26;;;;;;;9.38;4.80;;;;;;;;;;5088719;28;20028;-69
2021/06/06 05:37:52;;;;;;;8.73;4.25;;;;;;;;;;5091024;28;20024;-71
2021/06/06 05:40:19;;;;;;;6.32;4.13;;;;;;;;;;5089741;28;20028;-71
2021/06/06 05:42:45;;;;;;;9.60;4.72;;;;;;;;;;5094007;28;20028;-71
2021/06/06 05:45:11;;;;;;;12.82;5.93;;;;;;;;;;5097680;28;20390;-70
2021/06/06 05:47:37;;;;;;;7.78;3.95;;;;;;;;;;5093703;28;20020;-71
2021/06/06 05:50:05;;;;;;;10.05;4.32;;;;;;;;;;5105763;28;20024;-70
2021/06/06 05:52:32;;;;;;;6.85;3.70;;;;;;;;;;5099409;28;20028;-71
2021/06/06 05:55:01;;;;;;;8.30;3.92;;;;;;;;;;5109050;28;20034;-72
2021/06/06 05:57:27;;;;;;;10.75;4.65;;;;;;;;;;5096746;28;20036;-71
2021/06/06 05:59:54;;;;;;;12.20;3.72;;;;;;;;;;5092333;28;20748;-70
2021/06/06 06:02:20;;;;;;;9.77;3.45;;;;;;;;;;5093664;28;20063;-72
2021/06/06 06:04:47;;;;;;;7.72;4.40;;;;;;;;;;5101668;28;20024;-69
2021/06/06 06:07:13;;;;;;;8.40;3.88;;;;;;;;;;5110667;28;20058;-71
2021/06/06 06:09:39;;;;;;;12.55;4.20;;;;;;;;;;5084683;28;20032;-71
2021/06/06 06:12:06;;;;;;;9.88;4.65;;;;;;;;;;5093195;28;20035;-71
2021/06/06 06:14:32;;;;;;;10.50;3.67;;;;;;;;;;5098447;28;20059;-69
2021/06/06 06:16:58;;;;;;;8.02;3.45;;;;;;;;;;5084881;28;20032;-72
2021/06/06 06:19:24;;;;;;;8.43;4.82;;;;;;;;;;5091138;28;20024;-71
2021/06/06 06:21:50;;;;;;;9.27;3.80;;;;;;;;;;5099258;28;20035;-70
2021/06/06 06:24:16;;;;;;;8.25;3.88;;;;;;;;;;5108608;28;20707;-71
2021/06/06 06:26:42;;;;;;;9.50;4.38;;;;;;;;;;5102491;28;20110;-71
2021/06/06 06:29:09;;;;;;;9.38;4.30;;;;;;;;;;5109959;28;20028;-70
2021/06/06 06:31:36;;;;;;;9.10;3.90;;;;;;;;;;5100721;28;20032;-71
2021/06/06 06:34:02;;;;;;;11.18;4.05;;;;;;;;;;5102534;28;20036;-71
2021/06/06 06:36:28;;;;;;;8.23;3.85;;;;;;;;;;5090913;28;20060;-72
2021/06/06 06:38:54;;;;;;;6.35;3.70;;;;;;;;;;5099826;28;20592;-72
2021/06/06 06:41:22;;;;;;;9.15;3.88;;;;;;;;;;5095861;28;20447;-73
2021/06/06 06:43:48;;;;;;;9.23;4.32;;;;;;;;;;5092176;28;20025;-71
2021/06/06 06:46:14;;;;;;;7.22;4.15;;;;;;;;;;5102717;28;20080;-72
2021/06/06 06:48:40;;;;;;;7.72;4.60;;;;;;;;;;5090609;28;20035;-70
2021/06/06 06:51:07;;;;;;;8.70;4.30;;;;;;;;;;5089642;28;20028;-72
2021/06/06 06:53:33;;;;;;;11.13;4.45;;;;;;;;;;5089103;28;20032;-70
2021/06/06 06:55:59;;;;;;;13.40;4.70;;;;;;;;;;5097344;28;20024;-71
2021/06/06 06:58:25;;;;;;;12.32;4.18;;;;;;;;;;5109332;28;20024;-68
2021/06/06 07:00:53;;;;;;;7.40;4.00;;;;;;;;;;5095654;28;20153;-71
2021/06/06 07:03:31;;;;;;;7.47;3.55;;;;;;;;;;5088885;28;20032;-71
2021/06/06 07:05:59;;;;;;;7.25;4.03;;;;;;;;;;5089993;28;20028;-70
2021/06/06 07:08:29;;;;;;;7.22;3.50;;;;;;;;;;5095049;28;20030;-70
2021/06/06 07:10:56;;;;;;;7.03;3.55;;;;;;;;;;5089849;28;20024;-73
2021/06/06 07:13:23;;;;;;;9.43;4.10;;;;;;;;;;5090560;28;20398;-72
2021/06/06 07:15:49;;;;;;;8.07;3.85;;;;;;;;;;5094825;28;20127;-72
2021/06/06 07:18:20;;;;;;;6.07;3.53;;;;;;;;;;5093019;28;20510;-70
2021/06/06 07:20:47;;;;;;;8.60;3.33;;;;;;;;;;5091692;28;20153;-72
2021/06/06 07:23:13;;;;;;;7.25;3.33;;;;;;;;;;5074632;28;20020;-73
2021/06/06 07:25:40;;;;;;;6.60;3.67;;;;;;;;;;5101121;28;20032;-71
2021/06/06 07:28:07;;;;;;;6.88;3.30;;;;;;;;;;5072356;28;20069;-72
2021/06/06 07:30:38;;;;;;;7.70;3.35;;;;;;;;;;5094200;28;20024;-72
2021/06/06 07:33:05;;;;;;;6.32;3.47;;;;;;;;;;5097050;28;20025;-71
2021/06/06 07:35:32;;;;;;;9.55;3.67;;;;;;;;;;5097670;28;20036;-72
2021/06/06 07:37:58;;;;;;;5.53;3.30;;;;;;;;;;5095611;28;20030;-72
2021/06/06 07:40:27;;;;;;;5.45;3.63;;;;;;;;;;5102742;28;20024;-71
2021/06/06 07:42:53;;;;;;;8.05;3.80;;;;;;;;;;5102074;28;20401;-72
2021/06/06 07:45:19;;;;;;;9.05;3.75;;;;;;;;;;5105628;28;20051;-71
2021/06/06 07:47:45;;;;;;;7.53;3.35;;;;;;;;;;5088949;28;20820;-72
2021/06/06 07:50:17;;;;;;;6.72;3.83;;;;;;;;;;5090282;28;20039;-71
2021/06/06 07:52:43;;;;;;;6.10;3.75;;;;;;;;;;5110215;28;20035;-71
2021/06/06 07:55:11;;;;;;;10.85;3.42;;;;;;;;;;5109474;28;20077;-71
2021/06/06 07:57:38;;;;;;;5.93;3.25;;;;;;;;;;5110472;28;20140;-72
2021/06/06 08:00:05;;;;;;;6.97;3.05;;;;;;;;;;5108835;28;20055;-70
2021/06/06 08:02:31;;;;;;;9.38;3.85;;;;;;;;;;5089787;28;20469;-72
2021/06/06 08:04:57;;;;;;;5.90;3.63;;;;;;;;;;5089826;28;20028;-71
2021/06/06 08:07:28;;;;;;;9.18;3.60;;;;;;;;;;5090666;28;20123;-71
2021/06/06 08:09:54;;;;;;;6.50;3.45;;;;;;;;;;5090756;28;20070;-70
2021/06/06 08:12:20;;;;;;;9.50;4.18;;;;;;;;;;5089248;28;20511;-71
2021/06/06 08:14:47;;;;;;;10.57;3.72;;;;;;;;;;5101201;28;20079;-71
2021/06/06 08:17:13;;;;;;;7.78;3.50;;;;;;;;;;5103846;28;20049;-71
2021/06/06 08:19:39;;;;;;;8.90;4.70;;;;;;;;;;5099127;28;20036;-70
2021/06/06 08:22:06;;;;;;;9.13;4.38;;;;;;;;;;5091040;28;20044;-71
2021/06/06 08:24:32;;;;;;;8.15;3.55;;;;;;;;;;5091633;28;20027;-72
2021/06/06 08:26:58;;;;;;;8.98;3.85;;;;;;;;;;5091560;28;20094;-70
2021/06/06 08:29:24;;;;;;;6.00;3.15;;;;;;;;;;5109523;28;20032;-71
2021/06/06 08:31:52;;;;;;;4.35;3.20;;;;;;;;;;5105791;28;20029;-71
2021/06/06 08:34:21;;;;;;;5.35;3.20;;;;;;;;;;5103633;28;20517;-71
2021/06/06 08:36:47;;;;;;;8.07;2.95;;;;;;;;;;5081943;28;20725;-73
2021/06/06 08:39:22;;;;;;;6.82;3.03;;;;;;;;;;5102507;28;20027;-72
2021/06/06 08:41:55;;;;;;;10.15;3.78;;;;;;;;;;5099119;28;20618;-71
2021/06/06 08:44:32;;;;;;;6.55;2.50;;;;;;;;;;5089404;28;20026;-71
2021/06/06 08:47:00;;;;;;;7.35;3.10;;;;;;;;;;5088839;28;20024;-71
2021/06/06 08:49:29;;;;;;;8.68;2.85;;;;;;;;;;5097305;28;20367;-71
2021/06/06 08:52:10;;;;;;;5.97;2.92;;;;;;;;;;5105510;28;20024;-71
2021/06/06 08:54:37;;;;;;;7.47;2.75;;;;;;;;;;5089196;28;20031;-72
2021/06/06 08:57:05;;;;;;;3.67;2.40;;;;;;;;;;5104383;28;20051;-72
2021/06/06 08:59:46;;;;;;;5.97;2.75;;;;;;;;;;5104387;28;20483;-72
2021/06/06 09:02:19;;;;;;;3.10;2.60;;;;;;;;;;5074689;28;20053;-71
2021/06/06 09:04:45;;;;;;;4.90;3.00;;;;;;;;;;5082508;28;20042;-73
2021/06/06 09:07:23;;;;;;;7.35;3.30;;;;;;;;;;5098416;28;20054;-73
2021/06/06 09:09:51;;;;;;;5.85;3.10;;;;;;;;;;5106247;28;20074;-72
2021/06/06 09:12:19;;;;;;;4.57;2.78;;;;;;;;;;5089037;28;20024;-73
2021/06/06 09:14:47;;;;;;;5.68;3.17;;;;;;;;;;5088384;28;20101;-72
2021/06/06 09:17:14;;;;;;;5.28;2.67;;;;;;;;;;5084367;28;20078;-72
2021/06/06 09:19:43;;;;;;;4.32;2.60;;;;;;;;;;5099560;28;20051;-71
2021/06/06 09:22:09;;;;;;;4.43;3.08;;;;;;;;;;5088957;28;20032;-72
2021/06/06 09:24:39;;;;;;;5.10;3.08;;;;;;;;;;5088561;28;20024;-72
2021/06/06 09:27:14;;;;;;;4.00;2.63;;;;;;;;;;5082469;28;20393;-72
2021/06/06 09:29:41;;;;;;;5.50;3.08;;;;;;;;;;5102798;28;20023;-73
2021/06/06 09:32:27;;;;;;;6.07;2.75;;;;;;;;;;5087142;28;20047;-72
2021/06/06 09:34:55;;;;;;;7.30;3.08;;;;;;;;;;5091567;28;20047;-72
2021/06/06 09:37:22;;;;;;;7.78;3.53;;;;;;;;;;5100541;28;20077;-72
2021/06/06 09:39:53;;;;;;;5.93;2.90;;;;;;;;;;5098050;28;20036;-73
2021/06/06 09:42:21;;;;;;;8.98;3.35;;;;;;;;;;5101803;28;20031;-73
2021/06/06 09:45:00;;;;;;;4.72;3.45;;;;;;;;;;5093163;28;20055;-72
2021/06/06 09:47:26;;;;;;;6.70;3.60;;;;;;;;;;5103631;28;20036;-73
2021/06/06 09:50:01;;;;;;;3.92;2.92;;;;;;;;;;5103804;28;20028;-73
2021/06/06 09:52:40;;;;;;;4.97;3.25;;;;;;;;;;5096057;28;20036;-73
2021/06/06 09:55:15;;;;;;;5.30;2.75;;;;;;;;;;5093051;28;20031;-73
2021/06/06 09:57:43;;;;;;;;;;;;;;;;;;5112335;28;20323;-72
2021/06/06 10:00:11;;;;;;;5.80;3.45;;;;;;;;;;5093139;28;19912;-71
2021/06/06 10:02:45;;;;;;;6.30;2.90;;;;;;;;;;5092643;28;20036;-71
2021/06/06 10:05:17;;;;;;;4.15;2.92;;;;;;;;;;5106896;28;20034;-72
2021/06/06 10:07:52;;;;;;;3.78;2.47;;;;;;;;;;5109155;28;20113;-71
2021/06/06 10:10:26;;;;;;;6.60;2.50;;;;;;;;;;5111687;28;20051;-71
2021/06/06 10:12:52;;;;;;;3.78;2.30;;;;;;;;;;5096510;28;20387;-72
2021/06/06 10:15:40;;;;;;;4.53;2.40;;;;;;;;;;5091208;28;20784;-72
2021/06/06 10:18:10;;;;;;;2.97;2.15;;;;;;;;;;5091315;28;20053;-71
2021/06/06 10:20:37;;;;;;;3.47;2.75;;;;;;;;;;5091764;28;20051;-71
2021/06/06 10:23:06;;;;;;;4.13;2.45;;;;;;;;;;5094119;28;20063;-70
2021/06/06 10:25:44;;;;;;;4.78;2.67;;;;;;;;;;5110324;28;20106;-72
2021/06/06 10:28:12;;;;;;;5.78;3.40;;;;;;;;;;5110045;28;20092;-70
2021/06/06 10:30:47;;;;;;;3.17;2.38;;;;;;;;;;5108205;28;20051;-70
2021/06/06 10:33:19;;;;;;;4.70;2.47;;;;;;;;;;5092544;28;20390;-70
2021/06/06 10:35:46;;;;;;;5.03;2.53;;;;;;;;;;5094738;28;20024;-70
2021/06/06 10:38:13;;;;;;;4.10;2.47;;;;;;;;;;5073706;28;20039;-70
2021/06/06 10:40:44;;;;;;;4.03;2.58;;;;;;;;;;5095843;28;20035;-72
2021/06/06 10:43:13;;;;;;;3.50;3.00;;;;;;;;;;5100516;28;20097;-69
2021/06/06 10:45:59;;;;;;;4.00;2.42;;;;;;;;;;5095031;28;20040;-70
2021/06/06 10:48:30;;;;;;;2.60;2.35;;;;;;;;;;5095221;28;20019;-69
2021/06/06 10:51:18;;;;;;;3.28;2.55;;;;;;;;;;5102608;28;20491;-70
2021/06/06 10:53:55;;;;;;;4.43;2.55;;;;;;;;;;5090709;28;20036;-69
2021/06/06 10:56:48;;;;;;;3.15;2.35;;;;;;;;;;5099215;28;20098;-72
2021/06/06 10:59:14;;;;;;;4.07;2.40;;;;;;;;;;5103372;28;20031;-71
2021/06/06 11:01:43;;;;;;;3.22;2.40;;;;;;;;;;5106712;28;20023;-70
2021/06/06 11:04:11;;;;;;;5.72;2.70;;;;;;;;;;5073169;28;20387;-70
2021/06/06 11:06:38;;;;;;;3.50;2.40;;;;;;;;;;5094825;28;20076;-72
2021/06/06 11:09:06;;;;;;;3.35;2.20;;;;;;;;;;5102853;28;20027;-71
2021/06/06 11:11:33;;;;;;;5.10;2.80;;;;;;;;;;5104456;28;20126;-72
2021/06/06 11:14:09;;;;;;;6.60;2.40;;;;;;;;;;5102508;28;20483;-71
2021/06/06 11:16:36;;;;;;;3.72;1.98;;;;;;;;;;5091098;28;20122;-70
2021/06/06 11:19:13;;;;;;;2.97;1.98;;;;;;;;;;5091009;28;20062;-71
2021/06/06 11:21:45;;;;;;;2.60;1.80;;;;;;;;;;5090231;28;20552;-71
2021/06/06 11:24:29;;;;;;;2.15;1.92;;;;;;;;;;5092469;28;20024;-71
2021/06/06 11:27:06;;;;;;;2.85;1.90;;;;;;;;;;5092657;28;20031;-70
2021/06/06 11:29:44;;;;;;;5.10;2.10;;;;;;;;;;5111137;28;20024;-71
2021/06/06 11:32:14;;;;;;;3.78;1.92;;;;;;;;;;5103712;28;20036;-72
2021/06/06 11:34:49;;;;;;;2.50;1.90;;;;;;;;;;5090085;28;20032;-71
2021/06/06 11:37:28;;;;;;;2.63;1.92;;;;;;;;;;5091601;28;20062;-71
2021/06/06 11:39:54;;;;;;;3.85;2.22;;;;;;;;;;5089493;28;20081;-71
2021/06/06 11:42:23;;;;;;;3.35;2.58;;;;;;;;;;5093828;28;20453;-72
2021/06/06 11:44:50;;;;;;;2.70;2.30;;;;;;;;;;5110188;28;20043;-71
2021/06/06 11:47:21;;;;;;;3.80;2.60;;;;;;;;;;5110113;28;20022;-70
2021/06/06 11:49:50;;;;;;;3.20;2.22;;;;;;;;;;5097442;28;20073;-72
2021/06/06 11:52:38;;;;;;;5.60;2.50;;;;;;;;;;5089603;28;20031;-71
2021/06/06 11:55:16;;;;;;;3.20;2.25;;;;;;;;;;5090125;28;20089;-71
2021/06/06 11:57:49;;;;;;;2.53;2.17;;;;;;;;;;5103984;28;20389;-71
2021/06/06 12:00:20;;;;;;;3.00;2.15;;;;;;;;;;5109802;28;20462;-72
2021/06/06 12:02:46;;;;;;;2.20;1.90;;;;;;;;;;5089659;28;20111;-72
2021/06/06 12:05:12;;;;;;;3.17;2.00;;;;;;;;;;5070973;28;20055;-72
2021/06/06 12:07:44;;;;;;;4.75;2.20;;;;;;;;;;5089964;28;20073;-71
2021/06/06 12:10:20;;;;;;;3.17;2.40;;;;;;;;;;5089119;28;20498;-73
2021/06/06 12:12:50;;;;;;;2.58;2.38;;;;;;;;;;5089149;28;20036;-72
2021/06/06 12:15:21;;;;;;;3.40;2.70;;;;;;;;;;5089523;28;20054;-71
2021/06/06 12:17:47;;;;;;;3.05;2.75;;;;;;;;;;5089134;28;20023;-72
2021/06/06 12:20:22;;;;;;;3.35;2.30;;;;;;;;;;5089033;28;20081;-72
2021/06/06 12:22:48;;;;;;;3.72;2.40;;;;;;;;;;5093506;28;20386;-71
2021/06/06 12:25:14;;;;;;;3.33;2.33;;;;;;;;;;5096999;28;20028;-72
2021/06/06 12:27:51;;;;;;;4.25;2.83;;;;;;;;;;5071051;28;20044;-71
2021/06/06 12:30:28;;;;;;;5.82;2.60;;;;;;;;;;5102201;28;20020;-72
2021/06/06 12:32:56;;;;;;;3.22;2.60;;;;;;;;;;5089714;28;20069;-71
2021/06/06 12:35:24;;;;;;;2.97;2.35;;;;;;;;;;5095896;28;20028;-71
2021/06/06 12:37:53;;;;;;;3.55;2.50;;;;;;;;;;5094699;28;20157;-72
2021/06/06 12:40:20;;;;;;;5.45;2.70;;;;;;;;;;5089666;28;20560;-72
2021/06/06 12:42:48;;;;;;;2.83;2.45;;;;;;;;;;5094508;28;20036;-72
2021/06/06 12:45:16;;;;;;;5.80;2.47;;;;;;;;;;5101235;28;20096;-71
2021/06/06 12:47:44;;;;;;;3.60;2.63;;;;;;;;;;5099444;28;20039;-72
2021/06/06 12:50:16;;;;;;;3.15;2.20;;;;;;;;;;5089997;28;20028;-72
2021/06/06 12:52:44;;;;;;;4.40;2.25;;;;;;;;;;5089173;28;20043;-73
2021/06/06 12:55:40;;;;;;;3.30;2.50;;;;;;;;;;5090133;28;20587;-71
2021/06/06 12:58:11;;;;;;;2.75;2.50;;;;;;;;;;5072136;28;20078;-71
2021/06/06 13:00:42;;;;;;;2.70;2.42;;;;;;;;;;5092228;28;20585;-71
2021/06/06 13:03:28;;;;;;;3.97;2.90;;;;;;;;;;5088363;28;20071;-71
2021/06/06 13:05:56;;;;;;;3.35;2.97;;;;;;;;;;5083016;28;20054;-71
2021/06/06 13:08:28;;;;;;;3.03;2.53;;;;;;;;;;5097122;28;20029;-71
2021/06/06 13:10:59;;;;;;;3.95;2.45;;;;;;;;;;5093199;28;20055;-72
2021/06/06 13:13:32;;;;;;;4.35;2.70;;;;;;;;;;5096981;28;20028;-71
2021/06/06 13:15:58;;;;;;;3.50;2.50;;;;;;;;;;5097090;28;20051;-71
2021/06/06 13:18:29;;;;;;;3.15;2.83;;;;;;;;;;5104684;28;20103;-71
2021/06/06 13:20:56;;;;;;;4.28;2.70;;;;;;;;;;5101617;28;20032;-72
2021/06/06 13:23:25;;;;;;;3.83;2.40;;;;;;;;;;5099594;28;20027;-71
2021/06/06 13:25:51;;;;;;;4.65;2.70;;;;;;;;;;5108392;28;20117;-71
2021/06/06 13:28:21;;;;;;;9.38;3.17;;;;;;;;;;5102554;28;20024;-72
2021/06/06 13:30:47;;;;;;;5.28;3.38;;;;;;;;;;5094436;28;20035;-71
2021/06/06 13:33:15;;;;;;;4.75;2.53;;;;;;;;;;5109401;28;20032;-71
2021/06/06 13:35:41;;;;;;;3.15;2.50;;;;;;;;;;5101506;28;20038;-70
2021/06/06 13:38:08;;;;;;;4.97;2.53;;;;;;;;;;5077285;28;20047;-69
2021/06/06 13:40:36;;;;;;;5.70;3.17;;;;;;;;;;5093923;28;20031;-68
2021/06/06 13:43:02;;;;;;;3.72;2.70;;;;;;;;;;5092541;28;20028;-73
2021/06/06 13:45:30;;;;;;;4.93;3.03;;;;;;;;;;5073689;28;20032;-71
2021/06/06 13:47:57;;;;;;;7.47;3.17;;;;;;;;;;5098302;28;20074;-71
2021/06/06 13:50:24;;;;;;;4.18;2.80;;;;;;;;;;5097321;28;20081;-72
2021/06/06 13:52:52;;;;;;;4.57;2.70;;;;;;;;;;5107065;28;20032;-71
2021/06/06 13:55:20;;;;;;;5.13;2.72;;;;;;;;;;5098380;28;20032;-71
2021/06/06 13:57:46;;;;;;;4.47;3.22;;;;;;;;;;5092130;28;20032;-71
2021/06/06 14:00:14;;;;;;;7.55;3.75;;;;;;;;;;5105953;28;20100;-72
2021/06/06 14:02:44;;;;;;;3.45;2.75;;;;;;;;;;5112356;28;20148;-71
2021/06/06 14:05:11;;;;;;;3.65;2.50;;;;;;;;;;5104170;28;20030;-71
2021/06/06 14:07:37;;;;;;;5.10;2.70;;;;;;;;;;5098357;28;20020;-71
2021/06/06 14:10:05;;;;;;;5.43;2.90;;;;;;;;;;5091629;28;20036;-72
2021/06/06 14:12:32;;;;;;;3.00;2.42;;;;;;;;;;5091783;28;20548;-71
2021/06/06 14:14:58;;;;;;;5.50;2.85;;;;;;;;;;5099032;28;20052;-71
2021/06/06 14:17:24;;;;;;;6.00;2.75;;;;;;;;;;5073673;28;20093;-71
2021/06/06 14:19:50;;;;;;;4.25;2.58;;;;;;;;;;5072525;28;20430;-71
2021/06/06 14:22:16;;;;;;;5.07;2.88;;;;;;;;;;5092408;28;20031;-72
2021/06/06 14:24:42;;;;;;;4.22;2.75;;;;;;;;;;5093555;28;20752;-71
2021/06/06 14:27:09;;;;;;;3.78;2.80;;;;;;;;;;5091978;28;20031;-71
2021/06/06 14:29:36;;;;;;;3.00;2.60;;;;;;;;;;5090903;28;20055;-71
2021/06/06 14:32:02;;;;;;;3.67;2.63;;;;;;;;;;5091034;28;20028;-72
2021/06/06 14:34:28;;;;;;;4.13;2.50;;;;;;;;;;5091486;28;20030;-72
2021/06/06 14:36:54;;;;;;;5.35;2.53;;;;;;;;;;5092432;28;20039;-72
2021/06/06 14:39:21;;;;;;;3.70;2.75;;;;;;;;;;5098804;28;20455;-71
2021/06/06 14:41:48;;;;;;;5.55;2.97;;;;;;;;;;5090759;28;20036;-72
2021/06/06 14:44:14;;;;;;;5.40;3.28;;;;;;;;;;5105258;27;20039;-72
2021/06/06 14:46:40;;;;;;;6.82;3.30;;;;;;;;;;5091518;28;20506;-71
2021/06/06 14:49:06;;;;;;;5.18;2.58;;;;;;;;;;5082789;28;20105;-71
2021/06/06 14:51:34;;;;;;;6.75;3.15;;;;;;;;;;5090307;28;20024;-72